sensor_id;sensor_type;location;lat;lon;timestamp;P1;durP1;ratioP1;P2;durP2;ratioP2
10715;SDS011;5409;42.620;23.316;2022-12-16T00:01:51;16.25;;;7.70;;
10715;SDS011;5409;42.620;23.316;2022-12-16T00:04:18;13.55;;;5.53;;
10715;SDS011;5409;42.620;23.316;2022-12-16T00:06:45;17.60;;;6.85;;
10715;SDS011;5409;42.620;23.316;2022-12-16T00:09:11;10.23;;;5.82;;
10715;SDS011;5409;42.620;23.316;2022-12-16T00:11:39;16.67;;;8.00;;
10715;SDS011;5409;42.620;23.316;2022-12-16T00:14:07;9.52;;;4.78;;
10715;SDS011;5409;42.620;23.316;2022-12-16T00:16:34;7.38;;;3.67;;
10715;SDS011;5409;42.620;23.316;2022-12-16T00:19:01;19.50;;;8.73;;
10715;SDS011;5409;42.620;23.316;2022-12-16T00:21:28;13.00;;;6.68;;
10715;SDS011;5409;42.620;23.316;2022-12-16T00:23:55;16.92;;;7.22;;
10715;SDS011;5409;42.620;23.316;2022-12-16T00:26:22;14.13;;;5.20;;
10715;SDS011;5409;42.620;23.316;2022-12-16T00:28:49;9.60;;;4.80;;
10715;SDS011;5409;42.620;23.316;2022-12-16T00:31:17;13.77;;;8.23;;
10715;SDS011;5409;42.620;23.316;2022-12-16T00:33:44;11.38;;;7.68;;
10715;SDS011;5409;42.620;23.316;2022-12-16T00:36:11;9.77;;;5.63;;
10715;SDS011;5409;42.620;23.316;2022-12-16T00:38:37;25.55;;;12.38;;
10715;SDS011;5409;42.620;23.316;2022-12-16T00:41:04;25.58;;;14.10;;
10715;SDS011;5409;42.620;23.316;2022-12-16T00:43:32;24.05;;;12.77;;
10715;SDS011;5409;42.620;23.316;2022-12-16T00:45:58;15.80;;;9.95;;
10715;SDS011;5409;42.620;23.316;2022-12-16T00:48:27;10.68;;;5.10;;
10715;SDS011;5409;42.620;23.316;2022-12-16T00:50:53;20.13;;;10.05;;
10715;SDS011;5409;42.620;23.316;2022-12-16T00:53:21;12.30;;;7.05;;
10715;SDS011;5409;42.620;23.316;2022-12-16T00:55:49;13.05;;;6.88;;
10715;SDS011;5409;42.620;23.316;2022-12-16T00:58:16;17.98;;;9.50;;
10715;SDS011;5409;42.620;23.316;2022-12-16T01:00:43;13.35;;;8.52;;
10715;SDS011;5409;42.620;23.316;2022-12-16T01:03:09;15.60;;;6.22;;
10715;SDS011;5409;42.620;23.316;2022-12-16T01:05:38;18.25;;;10.30;;
10715;SDS011;5409;42.620;23.316;2022-12-16T01:08:04;18.67;;;9.77;;
10715;SDS011;5409;42.620;23.316;2022-12-16T01:10:31;12.55;;;6.70;;
10715;SDS011;5409;42.620;23.316;2022-12-16T01:12:58;15.18;;;7.82;;
10715;SDS011;5409;42.620;23.316;2022-12-16T01:15:25;14.75;;;7.43;;
10715;SDS011;5409;42.620;23.316;2022-12-16T01:17:52;22.02;;;10.18;;
10715;SDS011;5409;42.620;23.316;2022-12-16T01:20:19;19.80;;;9.27;;
10715;SDS011;5409;42.620;23.316;2022-12-16T01:22:47;16.60;;;8.80;;
10715;SDS011;5409;42.620;23.316;2022-12-16T01:25:13;31.92;;;13.77;;
10715;SDS011;5409;42.620;23.316;2022-12-16T01:27:41;51.47;;;22.33;;
10715;SDS011;5409;42.620;23.316;2022-12-16T01:30:09;43.45;;;21.15;;
10715;SDS011;5409;42.620;23.316;2022-12-16T01:32:36;54.63;;;23.75;;
10715;SDS011;5409;42.620;23.316;2022-12-16T01:35:03;132.02;;;22.73;;
10715;SDS011;5409;42.620;23.316;2022-12-16T01:37:31;41.40;;;19.00;;
10715;SDS011;5409;42.620;23.316;2022-12-16T01:40:00;22.60;;;11.98;;
10715;SDS011;5409;42.620;23.316;2022-12-16T01:42:26;30.08;;;15.05;;
10715;SDS011;5409;42.620;23.316;2022-12-16T01:44:56;41.58;;;18.30;;
10715;SDS011;5409;42.620;23.316;2022-12-16T01:47:58;35.15;;;16.92;;
10715;SDS011;5409;42.620;23.316;2022-12-16T01:50:29;63.17;;;29.17;;
10715;SDS011;5409;42.620;23.316;2022-12-16T01:52:57;22.50;;;9.85;;
10715;SDS011;5409;42.620;23.316;2022-12-16T01:55:31;32.03;;;16.90;;
10715;SDS011;5409;42.620;23.316;2022-12-16T01:58:01;42.55;;;19.52;;
10715;SDS011;5409;42.620;23.316;2022-12-16T02:00:32;13.10;;;7.55;;
10715;SDS011;5409;42.620;23.316;2022-12-16T02:02:59;37.90;;;20.50;;
10715;SDS011;5409;42.620;23.316;2022-12-16T02:05:27;15.38;;;9.68;;
10715;SDS011;5409;42.620;23.316;2022-12-16T02:07:57;20.80;;;12.68;;
10715;SDS011;5409;42.620;23.316;2022-12-16T02:10:32;18.77;;;11.18;;
10715;SDS011;5409;42.620;23.316;2022-12-16T02:13:09;15.35;;;9.98;;
10715;SDS011;5409;42.620;23.316;2022-12-16T02:15:44;12.95;;;5.82;;
10715;SDS011;5409;42.620;23.316;2022-12-16T02:18:21;14.23;;;8.82;;
10715;SDS011;5409;42.620;23.316;2022-12-16T02:21:03;22.02;;;10.63;;
10715;SDS011;5409;42.620;23.316;2022-12-16T02:26:48;10.98;;;6.05;;
10715;SDS011;5409;42.620;23.316;2022-12-16T02:29:31;11.10;;;6.90;;
10715;SDS011;5409;42.620;23.316;2022-12-16T02:32:27;7.88;;;4.65;;
10715;SDS011;5409;42.620;23.316;2022-12-16T02:35:02;19.23;;;8.25;;
10715;SDS011;5409;42.620;23.316;2022-12-16T02:37:36;10.20;;;5.72;;
10715;SDS011;5409;42.620;23.316;2022-12-16T02:40:10;15.43;;;8.45;;
10715;SDS011;5409;42.620;23.316;2022-12-16T02:42:44;15.45;;;7.65;;
10715;SDS011;5409;42.620;23.316;2022-12-16T02:45:16;14.07;;;7.32;;
10715;SDS011;5409;42.620;23.316;2022-12-16T02:47:46;13.85;;;9.07;;
10715;SDS011;5409;42.620;23.316;2022-12-16T02:50:15;12.10;;;6.65;;
10715;SDS011;5409;42.620;23.316;2022-12-16T02:52:45;12.10;;;8.63;;
10715;SDS011;5409;42.620;23.316;2022-12-16T02:55:12;12.40;;;7.15;;
10715;SDS011;5409;42.620;23.316;2022-12-16T02:57:42;17.30;;;9.25;;
10715;SDS011;5409;42.620;23.316;2022-12-16T03:00:24;26.58;;;13.90;;
10715;SDS011;5409;42.620;23.316;2022-12-16T03:02:55;33.25;;;19.38;;
10715;SDS011;5409;42.620;23.316;2022-12-16T03:05:27;20.13;;;8.93;;
10715;SDS011;5409;42.620;23.316;2022-12-16T03:07:57;23.27;;;11.02;;
10715;SDS011;5409;42.620;23.316;2022-12-16T03:10:28;25.42;;;12.20;;
10715;SDS011;5409;42.620;23.316;2022-12-16T03:12:58;18.88;;;9.45;;
10715;SDS011;5409;42.620;23.316;2022-12-16T03:15:27;18.90;;;9.77;;
10715;SDS011;5409;42.620;23.316;2022-12-16T03:18:00;19.00;;;10.85;;
10715;SDS011;5409;42.620;23.316;2022-12-16T03:20:29;18.27;;;10.60;;
10715;SDS011;5409;42.620;23.316;2022-12-16T03:23:02;20.75;;;10.75;;
10715;SDS011;5409;42.620;23.316;2022-12-16T03:25:34;18.35;;;10.00;;
10715;SDS011;5409;42.620;23.316;2022-12-16T03:28:05;22.83;;;10.65;;
10715;SDS011;5409;42.620;23.316;2022-12-16T03:30:44;19.05;;;11.63;;
10715;SDS011;5409;42.620;23.316;2022-12-16T03:33:17;17.23;;;11.10;;
10715;SDS011;5409;42.620;23.316;2022-12-16T03:35:53;18.05;;;11.38;;
10715;SDS011;5409;42.620;23.316;2022-12-16T03:38:23;17.25;;;10.05;;
10715;SDS011;5409;42.620;23.316;2022-12-16T03:40:52;16.20;;;9.80;;
10715;SDS011;5409;42.620;23.316;2022-12-16T03:43:21;20.83;;;11.02;;
10715;SDS011;5409;42.620;23.316;2022-12-16T03:45:50;20.05;;;10.23;;
10715;SDS011;5409;42.620;23.316;2022-12-16T03:48:24;17.30;;;9.55;;
10715;SDS011;5409;42.620;23.316;2022-12-16T03:50:51;15.32;;;8.90;;
10715;SDS011;5409;42.620;23.316;2022-12-16T03:53:18;21.02;;;12.30;;
10715;SDS011;5409;42.620;23.316;2022-12-16T03:55:45;32.13;;;15.32;;
10715;SDS011;5409;42.620;23.316;2022-12-16T03:58:12;38.47;;;18.45;;
10715;SDS011;5409;42.620;23.316;2022-12-16T04:00:39;36.83;;;18.23;;
10715;SDS011;5409;42.620;23.316;2022-12-16T04:03:06;29.17;;;16.58;;
10715;SDS011;5409;42.620;23.316;2022-12-16T04:05:34;36.90;;;17.27;;
10715;SDS011;5409;42.620;23.316;2022-12-16T04:08:01;33.55;;;14.48;;
10715;SDS011;5409;42.620;23.316;2022-12-16T04:10:27;129.85;;;23.05;;
10715;SDS011;5409;42.620;23.316;2022-12-16T04:13:12;409.05;;;36.08;;
10715;SDS011;5409;42.620;23.316;2022-12-16T04:15:56;138.18;;;22.85;;
10715;SDS011;5409;42.620;23.316;2022-12-16T04:18:40;174.13;;;27.45;;
10715;SDS011;5409;42.620;23.316;2022-12-16T04:21:26;37.92;;;18.70;;
10715;SDS011;5409;42.620;23.316;2022-12-16T04:24:11;36.00;;;16.20;;
10715;SDS011;5409;42.620;23.316;2022-12-16T04:26:44;44.35;;;18.70;;
10715;SDS011;5409;42.620;23.316;2022-12-16T04:29:28;34.15;;;16.70;;
10715;SDS011;5409;42.620;23.316;2022-12-16T04:31:55;26.75;;;14.75;;
10715;SDS011;5409;42.620;23.316;2022-12-16T04:34:23;35.25;;;16.60;;
10715;SDS011;5409;42.620;23.316;2022-12-16T04:36:50;27.73;;;15.68;;
10715;SDS011;5409;42.620;23.316;2022-12-16T04:39:35;25.13;;;14.07;;
10715;SDS011;5409;42.620;23.316;2022-12-16T04:42:19;29.35;;;15.25;;
10715;SDS011;5409;42.620;23.316;2022-12-16T04:45:03;21.90;;;12.32;;
10715;SDS011;5409;42.620;23.316;2022-12-16T04:47:48;28.95;;;14.25;;
10715;SDS011;5409;42.620;23.316;2022-12-16T04:50:32;20.38;;;12.10;;
10715;SDS011;5409;42.620;23.316;2022-12-16T04:53:20;23.98;;;13.77;;
10715;SDS011;5409;42.620;23.316;2022-12-16T04:56:04;26.02;;;15.07;;
10715;SDS011;5409;42.620;23.316;2022-12-16T04:58:49;32.10;;;13.80;;
10715;SDS011;5409;42.620;23.316;2022-12-16T05:01:33;22.85;;;12.60;;
10715;SDS011;5409;42.620;23.316;2022-12-16T05:04:17;25.85;;;12.60;;
10715;SDS011;5409;42.620;23.316;2022-12-16T05:07:01;26.48;;;12.52;;
10715;SDS011;5409;42.620;23.316;2022-12-16T05:09:47;25.05;;;12.95;;
10715;SDS011;5409;42.620;23.316;2022-12-16T05:12:31;24.10;;;10.40;;
10715;SDS011;5409;42.620;23.316;2022-12-16T05:15:15;18.10;;;10.40;;
10715;SDS011;5409;42.620;23.316;2022-12-16T05:18:06;23.88;;;12.45;;
10715;SDS011;5409;42.620;23.316;2022-12-16T05:20:51;33.90;;;13.85;;
10715;SDS011;5409;42.620;23.316;2022-12-16T05:23:35;23.75;;;11.15;;
10715;SDS011;5409;42.620;23.316;2022-12-16T05:26:20;18.73;;;10.25;;
10715;SDS011;5409;42.620;23.316;2022-12-16T05:29:10;22.35;;;11.93;;
10715;SDS011;5409;42.620;23.316;2022-12-16T05:31:54;19.48;;;8.57;;
10715;SDS011;5409;42.620;23.316;2022-12-16T05:34:38;20.05;;;8.85;;
10715;SDS011;5409;42.620;23.316;2022-12-16T05:37:22;14.52;;;7.18;;
10715;SDS011;5409;42.620;23.316;2022-12-16T05:40:08;15.82;;;8.48;;
10715;SDS011;5409;42.620;23.316;2022-12-16T05:42:51;15.85;;;7.18;;
10715;SDS011;5409;42.620;23.316;2022-12-16T05:45:35;29.13;;;14.45;;
10715;SDS011;5409;42.620;23.316;2022-12-16T05:48:19;67.25;;;24.02;;
10715;SDS011;5409;42.620;23.316;2022-12-16T05:51:03;228.65;;;39.03;;
10715;SDS011;5409;42.620;23.316;2022-12-16T05:53:47;509.10;;;45.03;;
10715;SDS011;5409;42.620;23.316;2022-12-16T05:56:32;394.63;;;41.17;;
10715;SDS011;5409;42.620;23.316;2022-12-16T05:59:17;605.80;;;44.75;;
10715;SDS011;5409;42.620;23.316;2022-12-16T06:02:01;426.27;;;37.00;;
10715;SDS011;5409;42.620;23.316;2022-12-16T06:04:51;706.30;;;46.17;;
10715;SDS011;5409;42.620;23.316;2022-12-16T06:07:35;688.42;;;50.55;;
10715;SDS011;5409;42.620;23.316;2022-12-16T06:10:19;623.50;;;47.50;;
10715;SDS011;5409;42.620;23.316;2022-12-16T06:13:03;261.73;;;34.85;;
10715;SDS011;5409;42.620;23.316;2022-12-16T06:15:49;623.53;;;55.92;;
10715;SDS011;5409;42.620;23.316;2022-12-16T06:18:33;410.15;;;40.17;;
10715;SDS011;5409;42.620;23.316;2022-12-16T06:21:16;316.50;;;37.50;;
10715;SDS011;5409;42.620;23.316;2022-12-16T06:24:01;217.55;;;31.33;;
10715;SDS011;5409;42.620;23.316;2022-12-16T06:26:45;221.10;;;33.28;;
10715;SDS011;5409;42.620;23.316;2022-12-16T06:29:29;217.30;;;31.63;;
10715;SDS011;5409;42.620;23.316;2022-12-16T06:32:15;210.05;;;31.67;;
10715;SDS011;5409;42.620;23.316;2022-12-16T06:34:59;146.75;;;31.30;;
10715;SDS011;5409;42.620;23.316;2022-12-16T06:37:45;138.40;;;29.38;;
10715;SDS011;5409;42.620;23.316;2022-12-16T06:40:30;170.90;;;30.33;;
10715;SDS011;5409;42.620;23.316;2022-12-16T06:43:14;298.55;;;34.63;;
10715;SDS011;5409;42.620;23.316;2022-12-16T06:45:58;198.07;;;30.80;;
10715;SDS011;5409;42.620;23.316;2022-12-16T06:48:43;273.85;;;33.90;;
10715;SDS011;5409;42.620;23.316;2022-12-16T06:51:27;274.92;;;36.90;;
10715;SDS011;5409;42.620;23.316;2022-12-16T06:54:11;357.83;;;43.33;;
10715;SDS011;5409;42.620;23.316;2022-12-16T06:56:55;442.50;;;45.72;;
10715;SDS011;5409;42.620;23.316;2022-12-16T06:59:39;329.52;;;40.63;;
10715;SDS011;5409;42.620;23.316;2022-12-16T07:02:23;148.95;;;31.77;;
10715;SDS011;5409;42.620;23.316;2022-12-16T07:05:09;267.33;;;40.60;;
10715;SDS011;5409;42.620;23.316;2022-12-16T07:07:53;398.67;;;51.38;;
10715;SDS011;5409;42.620;23.316;2022-12-16T07:10:38;451.88;;;54.25;;
10715;SDS011;5409;42.620;23.316;2022-12-16T07:13:22;580.92;;;59.72;;
10715;SDS011;5409;42.620;23.316;2022-12-16T07:16:06;506.90;;;51.90;;
10715;SDS011;5409;42.620;23.316;2022-12-16T07:18:51;387.63;;;45.42;;
10715;SDS011;5409;42.620;23.316;2022-12-16T07:21:37;304.55;;;43.00;;
10715;SDS011;5409;42.620;23.316;2022-12-16T07:24:21;389.23;;;45.75;;
10715;SDS011;5409;42.620;23.316;2022-12-16T07:27:05;469.15;;;47.60;;
10715;SDS011;5409;42.620;23.316;2022-12-16T07:29:49;484.35;;;50.90;;
10715;SDS011;5409;42.620;23.316;2022-12-16T07:32:33;464.05;;;52.75;;
10715;SDS011;5409;42.620;23.316;2022-12-16T07:35:17;232.25;;;40.83;;
10715;SDS011;5409;42.620;23.316;2022-12-16T07:38:03;429.60;;;53.75;;
10715;SDS011;5409;42.620;23.316;2022-12-16T07:40:47;373.30;;;44.92;;
10715;SDS011;5409;42.620;23.316;2022-12-16T07:43:31;250.70;;;39.13;;
10715;SDS011;5409;42.620;23.316;2022-12-16T07:46:15;118.63;;;38.95;;
10715;SDS011;5409;42.620;23.316;2022-12-16T07:49:00;113.22;;;37.05;;
10715;SDS011;5409;42.620;23.316;2022-12-16T07:51:44;96.68;;;37.08;;
10715;SDS011;5409;42.620;23.316;2022-12-16T07:54:30;90.25;;;35.08;;
10715;SDS011;5409;42.620;23.316;2022-12-16T07:57:14;107.32;;;47.88;;
10715;SDS011;5409;42.620;23.316;2022-12-16T07:59:58;234.10;;;54.25;;
10715;SDS011;5409;42.620;23.316;2022-12-16T08:02:42;680.20;;;78.10;;
10715;SDS011;5409;42.620;23.316;2022-12-16T08:05:26;356.63;;;60.47;;
10715;SDS011;5409;42.620;23.316;2022-12-16T08:08:10;132.88;;;48.38;;
10715;SDS011;5409;42.620;23.316;2022-12-16T08:10:56;113.63;;;43.85;;
10715;SDS011;5409;42.620;23.316;2022-12-16T08:13:40;134.30;;;45.15;;
10715;SDS011;5409;42.620;23.316;2022-12-16T08:16:24;135.73;;;48.42;;
10715;SDS011;5409;42.620;23.316;2022-12-16T08:19:09;134.95;;;48.80;;
10715;SDS011;5409;42.620;23.316;2022-12-16T08:21:53;173.50;;;50.65;;
10715;SDS011;5409;42.620;23.316;2022-12-16T08:24:37;185.55;;;53.03;;
10715;SDS011;5409;42.620;23.316;2022-12-16T08:27:22;175.43;;;53.83;;
10715;SDS011;5409;42.620;23.316;2022-12-16T08:30:07;159.38;;;53.58;;
10715;SDS011;5409;42.620;23.316;2022-12-16T08:32:51;288.58;;;56.40;;
10715;SDS011;5409;42.620;23.316;2022-12-16T08:35:35;386.65;;;58.00;;
10715;SDS011;5409;42.620;23.316;2022-12-16T08:38:20;506.38;;;61.58;;
10715;SDS011;5409;42.620;23.316;2022-12-16T08:41:04;732.13;;;60.75;;
10715;SDS011;5409;42.620;23.316;2022-12-16T08:43:49;514.78;;;51.13;;
10715;SDS011;5409;42.620;23.316;2022-12-16T08:46:33;647.75;;;59.03;;
10715;SDS011;5409;42.620;23.316;2022-12-16T08:49:17;702.25;;;58.45;;
10715;SDS011;5409;42.620;23.316;2022-12-16T08:52:02;651.40;;;55.33;;
10715;SDS011;5409;42.620;23.316;2022-12-16T08:54:47;610.20;;;57.22;;
10715;SDS011;5409;42.620;23.316;2022-12-16T08:57:31;657.63;;;56.85;;
10715;SDS011;5409;42.620;23.316;2022-12-16T09:00:30;410.13;;;44.22;;
10715;SDS011;5409;42.620;23.316;2022-12-16T09:03:15;463.65;;;45.03;;
10715;SDS011;5409;42.620;23.316;2022-12-16T09:05:59;503.30;;;49.42;;
10715;SDS011;5409;42.620;23.316;2022-12-16T09:08:43;543.55;;;49.95;;
10715;SDS011;5409;42.620;23.316;2022-12-16T09:11:27;411.08;;;45.35;;
10715;SDS011;5409;42.620;23.316;2022-12-16T09:14:11;129.07;;;34.63;;
10715;SDS011;5409;42.620;23.316;2022-12-16T09:16:56;87.80;;;32.22;;
10715;SDS011;5409;42.620;23.316;2022-12-16T09:19:41;75.78;;;31.05;;
10715;SDS011;5409;42.620;23.316;2022-12-16T09:22:25;67.18;;;29.63;;
10715;SDS011;5409;42.620;23.316;2022-12-16T09:25:09;73.70;;;30.98;;
10715;SDS011;5409;42.620;23.316;2022-12-16T09:27:53;71.88;;;31.40;;
10715;SDS011;5409;42.620;23.316;2022-12-16T09:30:37;74.30;;;31.73;;
10715;SDS011;5409;42.620;23.316;2022-12-16T09:33:23;60.63;;;29.10;;
10715;SDS011;5409;42.620;23.316;2022-12-16T09:36:07;72.47;;;29.20;;
10715;SDS011;5409;42.620;23.316;2022-12-16T09:38:52;59.65;;;28.27;;
10715;SDS011;5409;42.620;23.316;2022-12-16T09:41:40;66.93;;;31.20;;
10715;SDS011;5409;42.620;23.316;2022-12-16T09:44:34;58.85;;;26.98;;
10715;SDS011;5409;42.620;23.316;2022-12-16T09:47:28;54.42;;;26.02;;
10715;SDS011;5409;42.620;23.316;2022-12-16T09:50:23;49.80;;;26.38;;
10715;SDS011;5409;42.620;23.316;2022-12-16T09:53:10;43.95;;;21.75;;
10715;SDS011;5409;42.620;23.316;2022-12-16T09:55:57;62.15;;;31.05;;
10715;SDS011;5409;42.620;23.316;2022-12-16T09:58:42;66.40;;;32.10;;
10715;SDS011;5409;42.620;23.316;2022-12-16T10:01:32;60.88;;;31.45;;
10715;SDS011;5409;42.620;23.316;2022-12-16T10:04:20;71.95;;;36.22;;
10715;SDS011;5409;42.620;23.316;2022-12-16T10:07:06;74.18;;;35.45;;
10715;SDS011;5409;42.620;23.316;2022-12-16T10:09:59;77.57;;;36.47;;
10715;SDS011;5409;42.620;23.316;2022-12-16T10:12:49;76.75;;;36.75;;
10715;SDS011;5409;42.620;23.316;2022-12-16T10:15:51;76.95;;;35.70;;
10715;SDS011;5409;42.620;23.316;2022-12-16T10:18:45;85.30;;;37.80;;
10715;SDS011;5409;42.620;23.316;2022-12-16T10:21:43;87.55;;;38.80;;
10715;SDS011;5409;42.620;23.316;2022-12-16T10:24:40;94.03;;;42.67;;
10715;SDS011;5409;42.620;23.316;2022-12-16T10:27:33;100.03;;;42.30;;
10715;SDS011;5409;42.620;23.316;2022-12-16T10:30:30;95.68;;;42.63;;
10715;SDS011;5409;42.620;23.316;2022-12-16T10:33:15;108.25;;;45.35;;
10715;SDS011;5409;42.620;23.316;2022-12-16T10:36:03;121.18;;;47.08;;
10715;SDS011;5409;42.620;23.316;2022-12-16T10:38:52;126.30;;;49.00;;
10715;SDS011;5409;42.620;23.316;2022-12-16T10:41:42;119.15;;;48.80;;
10715;SDS011;5409;42.620;23.316;2022-12-16T10:44:31;122.68;;;54.28;;
10715;SDS011;5409;42.620;23.316;2022-12-16T10:47:18;88.15;;;47.00;;
10715;SDS011;5409;42.620;23.316;2022-12-16T10:50:02;70.45;;;36.70;;
10715;SDS011;5409;42.620;23.316;2022-12-16T10:52:50;31.90;;;17.23;;
10715;SDS011;5409;42.620;23.316;2022-12-16T10:55:46;8.93;;;4.60;;
10715;SDS011;5409;42.620;23.316;2022-12-16T10:58:41;8.60;;;3.47;;
10715;SDS011;5409;42.620;23.316;2022-12-16T11:01:30;47.58;;;29.30;;
10715;SDS011;5409;42.620;23.316;2022-12-16T11:04:26;45.63;;;26.80;;
10715;SDS011;5409;42.620;23.316;2022-12-16T11:07:21;40.42;;;26.85;;
10715;SDS011;5409;42.620;23.316;2022-12-16T11:10:29;41.53;;;27.38;;
10715;SDS011;5409;42.620;23.316;2022-12-16T11:13:17;42.67;;;28.38;;
10715;SDS011;5409;42.620;23.316;2022-12-16T11:16:09;34.97;;;23.52;;
10715;SDS011;5409;42.620;23.316;2022-12-16T11:18:55;43.03;;;26.77;;
10715;SDS011;5409;42.620;23.316;2022-12-16T11:21:40;37.88;;;23.80;;
10715;SDS011;5409;42.620;23.316;2022-12-16T11:24:25;24.73;;;15.93;;
10715;SDS011;5409;42.620;23.316;2022-12-16T11:27:13;17.40;;;12.07;;
10715;SDS011;5409;42.620;23.316;2022-12-16T11:29:59;37.60;;;23.60;;
10715;SDS011;5409;42.620;23.316;2022-12-16T11:32:46;34.38;;;23.27;;
10715;SDS011;5409;42.620;23.316;2022-12-16T11:35:33;17.02;;;10.60;;
10715;SDS011;5409;42.620;23.316;2022-12-16T11:38:24;30.70;;;19.42;;
10715;SDS011;5409;42.620;23.316;2022-12-16T11:41:14;23.80;;;16.35;;
10715;SDS011;5409;42.620;23.316;2022-12-16T11:44:07;10.52;;;6.45;;
10715;SDS011;5409;42.620;23.316;2022-12-16T11:46:58;24.33;;;15.43;;
10715;SDS011;5409;42.620;23.316;2022-12-16T11:49:44;31.38;;;23.42;;
10715;SDS011;5409;42.620;23.316;2022-12-16T11:52:31;26.90;;;17.60;;
10715;SDS011;5409;42.620;23.316;2022-12-16T11:55:16;31.63;;;20.90;;
10715;SDS011;5409;42.620;23.316;2022-12-16T11:58:05;14.73;;;10.30;;
10715;SDS011;5409;42.620;23.316;2022-12-16T12:01:16;27.33;;;16.20;;
10715;SDS011;5409;42.620;23.316;2022-12-16T12:04:03;37.65;;;24.48;;
10715;SDS011;5409;42.620;23.316;2022-12-16T12:07:04;23.85;;;15.77;;
10715;SDS011;5409;42.620;23.316;2022-12-16T12:09:59;13.73;;;8.68;;
10715;SDS011;5409;42.620;23.316;2022-12-16T12:12:56;13.95;;;8.38;;
10715;SDS011;5409;42.620;23.316;2022-12-16T12:15:54;28.75;;;19.30;;
10715;SDS011;5409;42.620;23.316;2022-12-16T12:18:46;33.10;;;22.13;;
10715;SDS011;5409;42.620;23.316;2022-12-16T12:21:37;36.28;;;21.50;;
10715;SDS011;5409;42.620;23.316;2022-12-16T12:24:31;33.25;;;21.70;;
10715;SDS011;5409;42.620;23.316;2022-12-16T12:27:36;4.30;;;2.90;;
10715;SDS011;5409;42.620;23.316;2022-12-16T12:30:27;27.80;;;16.73;;
10715;SDS011;5409;42.620;23.316;2022-12-16T12:33:19;3.05;;;1.95;;
10715;SDS011;5409;42.620;23.316;2022-12-16T12:36:12;12.63;;;9.55;;
10715;SDS011;5409;42.620;23.316;2022-12-16T12:39:03;15.20;;;11.00;;
10715;SDS011;5409;42.620;23.316;2022-12-16T12:42:04;10.93;;;6.68;;
10715;SDS011;5409;42.620;23.316;2022-12-16T12:45:02;10.68;;;7.30;;
10715;SDS011;5409;42.620;23.316;2022-12-16T12:48:00;10.52;;;7.35;;
10715;SDS011;5409;42.620;23.316;2022-12-16T12:50:52;8.70;;;6.85;;
10715;SDS011;5409;42.620;23.316;2022-12-16T12:53:43;10.77;;;7.88;;
10715;SDS011;5409;42.620;23.316;2022-12-16T12:56:36;14.38;;;8.30;;
10715;SDS011;5409;42.620;23.316;2022-12-16T12:59:30;19.27;;;9.00;;
10715;SDS011;5409;42.620;23.316;2022-12-16T13:02:24;11.45;;;7.55;;
10715;SDS011;5409;42.620;23.316;2022-12-16T13:05:15;10.63;;;6.82;;
10715;SDS011;5409;42.620;23.316;2022-12-16T13:11:15;3.65;;;2.00;;
10715;SDS011;5409;42.620;23.316;2022-12-16T13:13:59;4.63;;;2.22;;
10715;SDS011;5409;42.620;23.316;2022-12-16T13:19:54;5.15;;;1.33;;
10715;SDS011;5409;42.620;23.316;2022-12-16T13:22:39;1.58;;;1.00;;
10715;SDS011;5409;42.620;23.316;2022-12-16T13:25:37;3.53;;;1.17;;
10715;SDS011;5409;42.620;23.316;2022-12-16T13:28:27;4.60;;;1.27;;
10715;SDS011;5409;42.620;23.316;2022-12-16T13:31:15;5.30;;;1.30;;
10715;SDS011;5409;42.620;23.316;2022-12-16T13:34:04;3.65;;;1.20;;
10715;SDS011;5409;42.620;23.316;2022-12-16T13:36:53;1.60;;;1.50;;
10715;SDS011;5409;42.620;23.316;2022-12-16T13:39:40;6.63;;;1.50;;
10715;SDS011;5409;42.620;23.316;2022-12-16T13:45:36;5.97;;;0.90;;
10715;SDS011;5409;42.620;23.316;2022-12-16T13:54:43;2.40;;;1.55;;
10715;SDS011;5409;42.620;23.316;2022-12-16T13:57:34;1.77;;;1.35;;
10715;SDS011;5409;42.620;23.316;2022-12-16T14:00:23;1.77;;;1.10;;
10715;SDS011;5409;42.620;23.316;2022-12-16T14:03:09;4.93;;;1.20;;
10715;SDS011;5409;42.620;23.316;2022-12-16T14:05:57;2.50;;;1.40;;
10715;SDS011;5409;42.620;23.316;2022-12-16T14:08:43;2.65;;;1.10;;
10715;SDS011;5409;42.620;23.316;2022-12-16T14:11:29;5.60;;;1.20;;
10715;SDS011;5409;42.620;23.316;2022-12-16T14:14:28;7.43;;;1.35;;
10715;SDS011;5409;42.620;23.316;2022-12-16T14:17:18;3.35;;;1.58;;
10715;SDS011;5409;42.620;23.316;2022-12-16T14:20:09;2.97;;;1.33;;
10715;SDS011;5409;42.620;23.316;2022-12-16T14:23:20;9.57;;;3.55;;
10715;SDS011;5409;42.620;23.316;2022-12-16T14:26:13;8.75;;;6.03;;
10715;SDS011;5409;42.620;23.316;2022-12-16T14:28:59;8.75;;;5.18;;
10715;SDS011;5409;42.620;23.316;2022-12-16T14:31:44;7.93;;;4.53;;
10715;SDS011;5409;42.620;23.316;2022-12-16T14:34:29;10.18;;;5.32;;
10715;SDS011;5409;42.620;23.316;2022-12-16T14:37:17;9.60;;;5.20;;
10715;SDS011;5409;42.620;23.316;2022-12-16T14:40:03;6.20;;;3.53;;
10715;SDS011;5409;42.620;23.316;2022-12-16T14:43:02;5.35;;;1.60;;
10715;SDS011;5409;42.620;23.316;2022-12-16T14:45:53;6.78;;;3.70;;
10715;SDS011;5409;42.620;23.316;2022-12-16T14:48:34;2.92;;;1.60;;
10715;SDS011;5409;42.620;23.316;2022-12-16T14:51:24;4.72;;;2.42;;
10715;SDS011;5409;42.620;23.316;2022-12-16T14:54:16;2.35;;;1.55;;
10715;SDS011;5409;42.620;23.316;2022-12-16T14:57:09;2.38;;;1.02;;
10715;SDS011;5409;42.620;23.316;2022-12-16T15:00:00;5.55;;;1.38;;
10715;SDS011;5409;42.620;23.316;2022-12-16T15:02:55;4.28;;;1.30;;
10715;SDS011;5409;42.620;23.316;2022-12-16T15:05:43;2.55;;;1.17;;
10715;SDS011;5409;42.620;23.316;2022-12-16T15:08:29;2.67;;;1.15;;
10715;SDS011;5409;42.620;23.316;2022-12-16T15:11:18;1.48;;;0.88;;
10715;SDS011;5409;42.620;23.316;2022-12-16T15:14:04;4.13;;;1.15;;
10715;SDS011;5409;42.620;23.316;2022-12-16T15:16:51;4.10;;;1.00;;
10715;SDS011;5409;42.620;23.316;2022-12-16T15:19:37;2.83;;;1.00;;
10715;SDS011;5409;42.620;23.316;2022-12-16T15:22:26;3.70;;;0.95;;
10715;SDS011;5409;42.620;23.316;2022-12-16T15:25:16;2.80;;;1.27;;
10715;SDS011;5409;42.620;23.316;2022-12-16T15:28:02;4.10;;;1.20;;
10715;SDS011;5409;42.620;23.316;2022-12-16T15:30:55;1.30;;;1.00;;
10715;SDS011;5409;42.620;23.316;2022-12-16T15:33:40;3.00;;;1.00;;
10715;SDS011;5409;42.620;23.316;2022-12-16T15:36:25;0.77;;;0.70;;
10715;SDS011;5409;42.620;23.316;2022-12-16T15:39:17;1.42;;;0.80;;
10715;SDS011;5409;42.620;23.316;2022-12-16T15:42:02;2.35;;;0.90;;
10715;SDS011;5409;42.620;23.316;2022-12-16T15:44:48;6.78;;;1.10;;
10715;SDS011;5409;42.620;23.316;2022-12-16T15:47:35;2.47;;;0.90;;
10715;SDS011;5409;42.620;23.316;2022-12-16T15:50:22;4.75;;;1.50;;
10715;SDS011;5409;42.620;23.316;2022-12-16T15:53:22;2.28;;;1.00;;
10715;SDS011;5409;42.620;23.316;2022-12-16T15:56:16;3.90;;;1.20;;
10715;SDS011;5409;42.620;23.316;2022-12-16T15:59:14;2.85;;;1.15;;
10715;SDS011;5409;42.620;23.316;2022-12-16T16:02:05;2.63;;;1.15;;
10715;SDS011;5409;42.620;23.316;2022-12-16T16:04:56;1.95;;;1.27;;
10715;SDS011;5409;42.620;23.316;2022-12-16T16:07:42;2.10;;;1.00;;
10715;SDS011;5409;42.620;23.316;2022-12-16T16:10:26;2.00;;;1.17;;
10715;SDS011;5409;42.620;23.316;2022-12-16T16:13:10;4.78;;;1.08;;
10715;SDS011;5409;42.620;23.316;2022-12-16T16:15:54;5.65;;;1.40;;